Time;durP1;ratioP1;P1;durP2;ratioP2;P2;SDS_P1;SDS_P2;PMS_P1;PMS_P2;Temp;Humidity;BMP_temperature;BMP_pressure;BME280_temperature;BME280_humidity;BME280_pressure;Samples;Min_cycle;Max_cycle;Signal;HPM_P1;HPM_P2
2021/03/17 00:00:34;;;;;;;9.80;5.60;;;;;;;2.83;74.21;99871.09;5113629;28;20036;-74
2021/03/17 00:03:00;;;;;;;9.85;5.97;;;;;;;2.71;73.86;99847.81;5114845;28;20023;-71
2021/03/17 00:05:31;;;;;;;9.50;6.25;;;;;;;2.79;74.27;99875.59;5114748;28;20046;-79
2021/03/17 00:07:57;;;;;;;10.48;6.03;;;;;;;2.66;74.22;99858.50;5113618;28;20023;-75
2021/03/17 00:10:29;;;;;;;9.55;6.05;;;;;;;2.69;74.11;99837.31;5114647;28;20028;-68
2021/03/17 00:12:57;;;;;;;9.27;5.65;;;;;;;2.77;74.29;99866.88;5114406;28;20043;-68
2021/03/17 00:15:24;;;;;;;8.40;5.60;;;;;;;2.73;74.33;99862.66;5114402;28;20086;-70
2021/03/17 00:17:50;;;;;;;9.07;5.80;;;;;;;2.55;74.63;99835.16;5113239;28;20040;-70
2021/03/17 00:20:17;;;;;;;10.35;6.03;;;;;;;2.74;74.65;99860.88;5114469;28;20031;-70
2021/03/17 00:22:43;;;;;;;8.95;5.70;;;;;;;2.63;74.80;99847.22;5114330;28;20076;-70
2021/03/17 00:25:09;;;;;;;9.27;5.90;;;;;;;2.53;74.65;99838.78;5096429;28;20031;-72
2021/03/17 00:27:35;;;;;;;9.73;6.05;;;;;;;2.59;75.08;99843.81;5113977;28;20414;-70
2021/03/17 00:30:01;;;;;;;9.30;5.65;;;;;;;2.55;74.72;99848.34;5114464;27;20039;-70
2021/03/17 00:32:28;;;;;;;8.70;5.35;;;;;;;2.61;74.98;99854.31;5114420;28;20076;-68
2021/03/17 00:34:53;;;;;;;11.52;6.15;;;;;;;2.56;74.93;99843.94;5114412;28;20036;-67
2021/03/17 00:37:19;;;;;;;9.73;6.38;;;;;;;2.11;75.35;99786.63;5114343;28;20054;-68
2021/03/17 00:39:44;;;;;;;10.60;5.93;;;;;;;2.50;75.48;99841.50;5113955;28;20138;-71
2021/03/17 00:42:10;;;;;;;10.50;6.32;;;;;;;2.11;75.47;99778.75;5114059;28;20040;-70
2021/03/17 00:44:36;;;;;;;9.73;5.78;;;;;;;2.47;75.41;99837.19;5113440;28;20435;-72
2021/03/17 00:47:02;;;;;;;9.05;5.85;;;;;;;2.38;75.88;99823.47;5113100;28;20032;-72
2021/03/17 00:49:27;;;;;;;11.18;6.40;;;;;;;2.23;75.85;99801.19;5114564;28;20059;-71
2021/03/17 00:51:53;;;;;;;11.57;6.65;;;;;;;2.36;75.87;99823.53;5112586;28;20034;-72
2021/03/17 00:54:19;;;;;;;9.88;6.28;;;;;;;2.14;76.08;99802.34;5114121;28;20036;-71
2021/03/17 00:56:44;;;;;;;9.98;6.22;;;;;;;2.28;76.24;99829.06;5113621;28;20039;-69
2021/03/17 00:59:10;;;;;;;9.80;5.70;;;;;;;2.04;76.10;99782.50;5112884;28;20119;-69
2021/03/17 01:01:35;;;;;;;10.63;6.57;;;;;;;2.32;76.16;99831.56;5112440;28;20032;-70
2021/03/17 01:04:01;;;;;;;11.82;6.43;;;;;;;2.10;76.11;99794.59;5113873;28;20024;-72
2021/03/17 01:06:26;;;;;;;10.05;6.28;;;;;;;2.23;76.35;99822.25;5113715;28;20044;-72
2021/03/17 01:08:52;;;;;;;8.98;5.35;;;;;;;2.18;76.20;99814.47;5112195;28;20039;-70
2021/03/17 01:11:17;;;;;;;12.85;6.38;;;;;;;2.10;76.59;99794.59;5112564;28;20032;-72
2021/03/17 01:13:43;;;;;;;9.75;6.43;;;;;;;1.84;76.67;99750.75;5113571;28;20085;-71
2021/03/17 01:16:09;;;;;;;11.18;6.63;;;;;;;2.19;76.74;99815.34;5112142;28;20075;-71
2021/03/17 01:18:34;;;;;;;9.05;6.10;;;;;;;2.20;76.42;99811.78;5112257;28;20122;-70
2021/03/17 01:21:00;;;;;;;11.48;6.75;;;;;;;2.08;76.80;99797.28;5113871;28;20034;-70
2021/03/17 01:23:25;;;;;;;9.75;6.45;;;;;;;1.75;77.06;99757.16;5112263;28;20035;-70
2021/03/17 01:25:51;;;;;;;11.25;7.25;;;;;;;2.14;76.93;99812.00;5113103;28;20464;-70
2021/03/17 01:28:17;;;;;;;10.70;6.50;;;;;;;1.97;77.34;99821.31;5113642;28;20031;-69
2021/03/17 01:30:49;;;;;;;13.00;6.35;;;;;;;2.12;77.29;99821.69;5113463;28;20055;-70
2021/03/17 01:33:15;;;;;;;10.32;6.85;;;;;;;2.08;77.50;99823.59;5113548;28;20032;-68
2021/03/17 01:35:44;;;;;;;10.60;6.40;;;;;;;1.96;77.37;99792.41;5113227;28;20031;-69
2021/03/17 01:38:11;;;;;;;10.70;6.85;;;;;;;2.12;77.34;99819.94;5113286;28;20036;-70
2021/03/17 01:40:40;;;;;;;11.05;6.95;;;;;;;2.09;77.16;99814.78;5113411;28;20160;-72
2021/03/17 01:43:05;;;;;;;13.48;7.63;;;;;;;1.91;77.74;99781.19;5112140;28;20028;-72
2021/03/17 01:45:31;;;;;;;12.18;7.70;;;;;;;1.87;78.00;99788.31;5113167;28;20122;-70
2021/03/17 01:47:56;;;;;;;5.40;3.65;;;;;;;1.55;77.56;99733.28;5113260;28;20382;-70
2021/03/17 01:50:26;;;;;;;13.68;7.43;;;;;;;1.56;78.12;99738.47;5113268;28;20057;-71
2021/03/17 01:52:53;;;;;;;13.38;7.38;;;;;;;2.00;78.02;99809.81;5111771;28;20024;-71
2021/03/17 01:55:19;;;;;;;11.63;7.32;;;;;;;1.77;78.21;99781.63;5114833;28;20051;-72
2021/03/17 01:57:46;;;;;;;12.45;8.27;;;;;;;1.97;78.15;99809.91;5117321;28;20114;-72
2021/03/17 02:00:14;;;;;;;11.63;7.50;;;;;;;1.76;78.13;99768.53;5117653;28;20042;-72
2021/03/17 02:02:47;;;;;;;11.75;7.35;;;;;;;1.96;78.29;99803.81;5115735;28;20043;-73
2021/03/17 02:05:15;;;;;;;8.40;5.32;;;;;;;1.90;78.84;99813.66;5117227;28;20031;-72
2021/03/17 02:07:42;;;;;;;11.45;7.35;;;;;;;1.95;78.38;99803.84;5115711;28;20036;-71
2021/03/17 02:10:14;;;;;;;10.35;6.82;;;;;;;1.91;78.69;99799.59;5117124;27;20042;-71
2021/03/17 02:12:55;;;;;;;12.75;7.10;;;;;;;1.83;78.62;99796.34;5116814;27;20039;-72
2021/03/17 02:15:41;;;;;;;10.50;6.25;;;;;;;1.63;78.29;99765.41;5116868;28;20067;-72
2021/03/17 02:18:41;;;;;;;15.88;8.10;;;;;;;1.85;79.02;99811.19;5117186;28;20043;-70
2021/03/17 02:21:19;;;;;;;13.45;8.18;;;;;;;1.82;79.06;99816.50;5111012;28;20042;-69
2021/03/17 02:24:20;;;;;;;14.90;7.38;;;;;;;1.78;78.89;99793.88;5116620;28;20032;-70
2021/03/17 02:27:10;;;;;;;11.38;7.40;;;;;;;1.85;79.15;99820.84;5113188;28;20043;-71
2021/03/17 02:29:54;;;;;;;12.13;7.72;;;;;;;1.87;78.53;99808.50;5116689;28;20031;-74
2021/03/17 02:32:53;;;;;;;12.50;7.65;;;;;;;1.73;78.88;99783.47;5116652;28;20042;-72
2021/03/17 02:35:23;;;;;;;11.00;7.13;;;;;;;1.93;79.10;99810.91;5116511;28;20028;-68
2021/03/17 02:37:50;;;;;;;8.93;5.72;;;;;;;1.93;79.11;99813.53;5115980;28;20042;-69
2021/03/17 02:40:18;;;;;;;11.00;7.55;;;;;;;1.90;79.15;99803.13;5116503;27;20096;-71
2021/03/17 02:43:12;;;;;;;10.65;7.45;;;;;;;1.91;79.40;99802.22;5116035;28;20598;-70
2021/03/17 02:45:42;;;;;;;11.05;6.88;;;;;;;1.72;79.59;99779.13;5102410;28;20378;-71
2021/03/17 02:48:21;;;;;;;10.55;6.80;;;;;;;1.94;79.28;99804.78;5098266;28;20061;-70
2021/03/17 02:50:48;;;;;;;10.77;6.30;;;;;;;1.78;79.37;99788.59;5114788;28;20071;-69
2021/03/17 02:53:17;;;;;;;8.85;5.85;;;;;;;1.96;79.39;99813.47;5114928;28;20084;-69
2021/03/17 02:55:47;;;;;;;12.48;7.60;;;;;;;1.87;79.51;99813.75;5116445;28;20034;-70
2021/03/17 02:58:13;;;;;;;12.10;7.90;;;;;;;1.73;79.69;99786.09;5116149;28;20034;-69
2021/03/17 03:00:39;;;;;;;11.75;7.65;;;;;;;1.88;79.46;99820.72;5115939;28;20119;-70
2021/03/17 03:03:06;;;;;;;10.30;7.03;;;;;;;1.85;79.77;99820.84;5115085;28;20082;-70
2021/03/17 03:05:33;;;;;;;13.70;7.97;;;;;;;1.86;79.66;99806.78;5116195;28;20114;-71
2021/03/17 03:08:00;;;;;;;11.40;7.05;;;;;;;1.69;79.95;99788.91;5114878;28;20039;-73
2021/03/17 03:10:29;;;;;;;12.50;7.53;;;;;;;1.47;80.39;99756.31;5115836;28;20032;-72
2021/03/17 03:12:55;;;;;;;12.15;7.78;;;;;;;1.54;79.82;99769.19;5115613;28;20027;-72
2021/03/17 03:15:23;;;;;;;13.07;7.90;;;;;;;1.85;79.94;99805.91;5115757;28;20086;-72
2021/03/17 03:17:50;;;;;;;13.10;7.97;;;;;;;1.75;80.30;99807.13;5114281;28;20496;-72
2021/03/17 03:20:19;;;;;;;11.20;7.25;;;;;;;1.43;80.18;99752.91;5115666;27;20423;-72
2021/03/17 03:22:46;;;;;;;14.32;7.93;;;;;;;1.32;80.02;99731.34;5115647;28;20131;-72
2021/03/17 03:25:14;;;;;;;14.88;8.00;;;;;;;1.77;80.49;99809.69;5116012;28;20063;-72
2021/03/17 03:27:40;;;;;;;15.30;7.45;;;;;;;1.62;80.43;99782.09;5115321;27;20028;-77
2021/03/17 03:30:12;;;;;;;12.32;7.75;;;;;;;1.63;80.27;99789.06;5115497;28;20035;-73
2021/03/17 03:32:39;;;;;;;13.73;8.70;;;;;;;1.72;80.85;99810.69;5115317;28;20039;-74
2021/03/17 03:35:06;;;;;;;11.85;8.07;;;;;;;1.62;81.04;99809.25;5115500;28;20059;-74
2021/03/17 03:37:32;;;;;;;14.60;8.45;;;;;;;1.69;80.49;99815.19;5115525;28;20039;-73
2021/03/17 03:39:58;;;;;;;13.02;8.68;;;;;;;1.16;80.74;99733.59;5115282;28;20035;-72
2021/03/17 03:42:23;;;;;;;12.50;7.53;;;;;;;1.41;80.93;99776.59;5115540;28;20023;-72
2021/03/17 03:44:49;;;;;;;13.23;8.25;;;;;;;1.75;80.71;99820.28;5114841;28;20035;-73
2021/03/17 03:47:14;;;;;;;13.15;8.57;;;;;;;1.61;80.60;99797.00;5113841;28;20042;-72
2021/03/17 03:49:40;;;;;;;14.48;9.63;;;;;;;1.72;80.85;99821.19;5115315;28;20509;-72
2021/03/17 03:52:10;;;;;;;14.02;8.90;;;;;;;1.72;81.13;99815.09;5115171;27;20032;-72
2021/03/17 03:54:49;;;;;;;14.93;8.85;;;;;;;1.71;81.05;99822.09;5115072;28;20034;-72
2021/03/17 03:57:28;;;;;;;11.98;7.38;;;;;;;1.30;80.87;99748.94;5115315;28;20044;-73
2021/03/17 04:00:00;;;;;;;15.50;9.63;;;;;;;1.69;81.20;99816.03;5114686;28;20031;-74
2021/03/17 04:02:27;;;;;;;12.77;9.07;;;;;;;1.61;80.85;99797.00;5115254;27;20421;-74
2021/03/17 04:04:57;;;;;;;15.43;9.82;;;;;;;1.41;81.07;99747.69;5096590;28;20035;-74
2021/03/17 04:07:25;;;;;;;13.23;9.20;;;;;;;1.77;81.29;99820.22;5114842;28;20084;-74
2021/03/17 04:09:59;;;;;;;13.02;8.48;;;;;;;1.73;81.51;99812.41;5113436;28;20390;-72
2021/03/17 04:12:26;;;;;;;11.85;7.07;;;;;;;1.75;81.40;99825.53;5114565;28;20104;-69
2021/03/17 04:14:56;;;;;;;14.75;9.23;;;;;;;1.64;81.08;99796.06;5113197;28;20040;-71
2021/03/17 04:17:32;;;;;;;14.93;9.70;;;;;;;1.61;81.38;99802.28;5115229;28;20085;-71
2021/03/17 04:20:29;;;;;;;16.33;9.52;;;;;;;1.61;81.26;99806.66;5113345;28;20032;-71
2021/03/17 04:22:56;;;;;;;14.55;9.65;;;;;;;1.55;81.65;99791.97;5102075;28;20040;-71
2021/03/17 04:25:23;;;;;;;16.80;8.93;;;;;;;1.70;81.80;99817.75;5113440;28;20110;-71
2021/03/17 04:27:51;;;;;;;14.45;8.93;;;;;;;1.31;81.79;99758.53;5114275;28;20023;-70
2021/03/17 04:30:19;;;;;;;16.40;9.40;;;;;;;1.64;81.68;99804.81;5114535;28;20429;-71
2021/03/17 04:32:47;;;;;;;17.45;10.25;;;;;;;1.55;81.54;99805.09;5114151;28;20035;-73
2021/03/17 04:35:14;;;;;;;17.80;10.07;;;;;;;1.75;81.60;99822.03;5114153;28;20032;-71
2021/03/17 04:37:44;;;;;;;16.83;9.70;;;;;;;1.58;81.66;99791.00;5114557;28;20024;-71
2021/03/17 04:40:11;;;;;;;14.90;9.00;;;;;;;1.71;81.44;99819.47;5114285;28;20024;-70
2021/03/17 04:42:40;;;;;;;16.80;9.52;;;;;;;1.61;81.43;99806.66;5114216;28;20035;-71
2021/03/17 04:45:08;;;;;;;15.60;9.27;;;;;;;1.76;81.30;99816.72;5113843;28;20036;-72
2021/03/17 04:47:34;;;;;;;14.82;9.00;;;;;;;1.64;81.13;99791.69;5112677;28;20385;-72
2021/03/17 04:50:00;;;;;;;13.73;8.23;;;;;;;1.48;80.90;99758.88;5113987;28;20035;-72
2021/03/17 04:52:28;;;;;;;17.10;10.10;;;;;;;1.83;81.21;99806.84;5095825;28;20035;-71
2021/03/17 04:54:53;;;;;;;16.33;8.90;;;;;;;1.82;81.14;99799.88;5113912;28;20111;-73
2021/03/17 04:57:23;;;;;;;13.13;7.63;;;;;;;1.72;80.81;99791.41;5112917;28;20126;-71
2021/03/17 04:59:49;;;;;;;17.15;10.13;;;;;;;1.86;80.84;99812.91;5113843;28;20031;-72
2021/03/17 05:02:20;;;;;;;16.05;9.60;;;;;;;1.75;80.88;99801.00;5113658;28;20500;-70
2021/03/17 05:04:47;;;;;;;12.43;6.85;;;;;;;1.94;80.33;99817.91;5113926;28;20023;-71
2021/03/17 05:07:15;;;;;;;14.98;8.50;;;;;;;1.94;80.42;99804.78;5113757;28;20028;-72
2021/03/17 05:09:41;;;;;;;16.83;10.18;;;;;;;1.78;80.12;99791.25;5113989;28;20040;-71
2021/03/17 05:12:08;;;;;;;15.15;9.27;;;;;;;1.93;79.95;99817.06;5112240;28;20704;-71
2021/03/17 05:14:36;;;;;;;16.63;10.20;;;;;;;1.78;80.17;99793.88;5113333;28;20134;-70
2021/03/17 05:17:03;;;;;;;17.35;9.40;;;;;;;1.66;79.56;99750.41;5112131;28;20054;-70
2021/03/17 05:19:30;;;;;;;13.70;7.88;;;;;;;1.65;79.49;99756.59;5112435;28;20036;-70
2021/03/17 05:21:57;;;;;;;15.05;8.40;;;;;;;2.00;79.71;99817.69;5113735;28;20065;-70
2021/03/17 05:24:24;;;;;;;14.05;8.57;;;;;;;2.01;79.60;99817.66;5113582;28;20043;-70
2021/03/17 05:26:50;;;;;;;15.30;9.07;;;;;;;1.99;79.83;99823.88;5113299;28;20028;-71
2021/03/17 05:29:19;;;;;;;14.30;8.93;;;;;;;2.05;79.60;99814.94;5113287;28;20043;-70
2021/03/17 05:31:46;;;;;;;16.77;9.75;;;;;;;2.12;79.34;99822.56;5113813;28;20085;-70
2021/03/17 05:34:12;;;;;;;15.18;9.00;;;;;;;2.10;79.37;99824.38;5112143;28;20028;-70
2021/03/17 05:36:37;;;;;;;18.00;8.63;;;;;;;1.98;79.43;99809.88;5113480;28;20470;-71
2021/03/17 05:39:03;;;;;;;13.27;8.32;;;;;;;1.69;79.00;99755.56;5111965;28;20561;-72
2021/03/17 05:41:29;;;;;;;15.05;9.05;;;;;;;2.10;78.41;99794.59;5113232;28;20123;-72
2021/03/17 05:43:57;;;;;;;16.02;8.90;;;;;;;2.43;77.88;99829.47;5112977;28;20076;-71
2021/03/17 05:46:23;;;;;;;14.00;8.63;;;;;;;2.36;77.35;99796.38;5113299;28;20040;-70
2021/03/17 05:48:49;;;;;;;14.77;8.68;;;;;;;2.40;77.09;99793.56;5113327;28;20379;-70
2021/03/17 05:51:15;;;;;;;11.38;7.07;;;;;;;2.73;76.31;99833.69;5113299;28;20093;-71
2021/03/17 05:53:43;;;;;;;14.45;8.95;;;;;;;2.56;76.84;99801.81;5113425;28;20061;-72
2021/03/17 05:56:10;;;;;;;14.50;8.75;;;;;;;2.83;76.24;99832.44;5112824;28;20024;-72
2021/03/17 05:58:36;;;;;;;14.80;8.40;;;;;;;2.98;75.79;99845.97;5094936;28;20466;-72
2021/03/17 06:01:01;;;;;;;14.82;8.90;;;;;;;2.86;74.99;99811.25;5112918;28;20489;-71
2021/03/17 06:03:31;;;;;;;12.45;7.97;;;;;;;2.64;75.41;99773.44;5113275;28;20027;-71
2021/03/17 06:05:57;;;;;;;14.23;8.38;;;;;;;2.91;74.87;99813.75;5111600;28;20028;-72
2021/03/17 06:08:29;;;;;;;13.70;8.75;;;;;;;2.78;74.66;99800.13;5111672;28;20043;-71
2021/03/17 06:10:57;;;;;;;14.77;8.88;;;;;;;2.98;75.26;99835.44;5112817;28;20023;-72
2021/03/17 06:13:26;;;;;;;14.35;8.20;;;;;;;2.90;74.67;99811.16;5113151;28;20390;-71
2021/03/17 06:15:56;;;;;;;15.93;8.15;;;;;;;3.12;74.77;99843.72;5111411;28;20040;-75
2021/03/17 06:18:26;;;;;;;16.50;8.43;;;;;;;3.08;74.72;99844.72;5111798;28;20038;-71
2021/03/17 06:20:52;;;;;;;13.55;8.15;;;;;;;3.02;74.17;99830.03;5111625;28;20028;-79
2021/03/17 06:23:19;;;;;;;14.02;8.32;;;;;;;3.09;74.40;99851.75;5111775;28;20062;-72
2021/03/17 06:25:45;;;;;;;12.40;7.72;;;;;;;2.94;74.38;99825.94;5112871;28;20066;-72
2021/03/17 06:28:14;;;;;;;12.60;8.10;;;;;;;3.21;74.15;99855.72;5111473;28;20051;-72
2021/03/17 06:30:40;;;;;;;13.35;8.32;;;;;;;3.21;74.04;99858.34;5113008;28;20027;-72
2021/03/17 06:33:06;;;;;;;14.27;8.93;;;;;;;3.10;74.16;99854.31;5112638;28;20112;-72
2021/03/17 06:35:32;;;;;;;11.63;7.85;;;;;;;3.17;73.76;99865.47;5111653;28;20352;-72
2021/03/17 06:37:59;;;;;;;13.65;8.02;;;;;;;3.07;74.09;99864.09;5111515;28;20477;-72
2021/03/17 06:40:37;;;;;;;11.82;7.72;;;;;;;2.83;73.68;99814.00;5111846;28;20058;-70
2021/03/17 06:43:07;;;;;;;13.77;8.45;;;;;;;3.32;73.45;99872.00;5113813;28;20038;-71
2021/03/17 06:45:46;;;;;;;11.98;6.57;;;;;;;3.29;72.62;99865.06;5114816;28;20105;-73
2021/03/17 06:48:23;;;;;;;13.52;8.10;;;;;;;3.57;72.13;99867.53;5114736;28;20071;-74
2021/03/17 06:51:17;;;;;;;13.75;8.00;;;;;;;3.55;71.72;99850.88;5116231;28;20363;-72
2021/03/17 06:53:51;;;;;;;11.90;7.78;;;;;;;3.68;70.80;99846.03;5114815;28;20046;-74
2021/03/17 06:56:36;;;;;;;11.15;7.38;;;;;;;3.82;70.83;99875.34;5114599;28;20028;-70
2021/03/17 06:59:06;;;;;;;13.23;7.55;;;;;;;3.81;70.01;99852.53;5115868;27;20119;-68
2021/03/17 07:01:37;;;;;;;12.10;7.38;;;;;;;3.93;69.88;99883.72;5115101;28;20484;-72
2021/03/17 07:04:21;;;;;;;10.57;6.88;;;;;;;4.01;70.11;99881.66;5115904;28;20046;-70
2021/03/17 07:06:49;;;;;;;12.35;7.30;;;;;;;3.95;69.65;99866.03;5116043;28;20027;-71
2021/03/17 07:09:26;;;;;;;15.02;8.35;;;;;;;4.09;69.08;99878.72;5115887;28;20413;-70
2021/03/17 07:12:12;;;;;;;12.98;7.68;;;;;;;4.24;69.24;99882.50;5114857;28;20027;-72
2021/03/17 07:14:44;;;;;;;12.68;7.85;;;;;;;4.30;68.98;99883.13;5115210;28;20184;-77
2021/03/17 07:17:32;;;;;;;11.00;6.13;;;;;;;4.24;68.63;99888.63;5114198;28;20402;-75
2021/03/17 07:19:58;;;;;;;14.73;7.65;;;;;;;4.18;68.46;99862.50;5115309;28;20385;-78
2021/03/17 07:22:25;;;;;;;12.23;7.65;;;;;;;4.15;68.40;99830.97;5115763;28;20043;-73
2021/03/17 07:24:55;;;;;;;13.48;7.38;;;;;;;4.49;67.94;99883.25;5097380;28;20531;-68
2021/03/17 07:27:29;;;;;;;13.77;8.07;;;;;;;4.77;67.53;99880.31;5115438;28;20028;-75
2021/03/17 07:29:57;;;;;;;12.30;7.35;;;;;;;4.78;66.95;99873.25;5115531;28;20032;-72
2021/03/17 07:32:22;;;;;;;11.13;7.22;;;;;;;4.80;67.28;99858.16;5115483;28;20027;-73
2021/03/17 07:34:48;;;;;;;13.85;7.72;;;;;;;4.82;67.53;99883.59;5114617;28;20039;-73
2021/03/17 07:37:13;;;;;;;13.25;7.43;;;;;;;4.73;67.50;99864.63;5114278;28;20039;-72
2021/03/17 07:39:41;;;;;;;15.95;6.50;;;;;;;4.52;67.20;99813.56;5113153;28;20101;-72
2021/03/17 07:42:10;;;;;;;10.85;6.57;;;;;;;4.88;66.72;99877.22;5111662;28;20038;-76
2021/03/17 07:44:37;;;;;;;13.25;7.15;;;;;;;4.99;66.44;99874.09;5095586;28;20509;-75
2021/03/17 07:47:07;;;;;;;12.75;7.60;;;;;;;5.07;65.62;99878.13;5114668;28;20640;-75
2021/03/17 07:49:34;;;;;;;14.60;7.55;;;;;;;5.37;64.55;99877.69;5096949;28;20023;-75
2021/03/17 07:52:00;;;;;;;11.40;6.55;;;;;;;5.16;65.36;99864.50;5114751;28;20036;-71
2021/03/17 07:54:27;;;;;;;14.85;8.13;;;;;;;5.40;64.25;99889.03;5096380;28;20081;-76
2021/03/17 07:56:53;;;;;;;12.20;7.38;;;;;;;5.36;63.92;99876.00;5114927;28;20038;-73
2021/03/17 07:59:19;;;;;;;14.25;8.10;;;;;;;5.12;63.95;99857.66;5115511;28;20028;-73
2021/03/17 08:01:46;;;;;;;12.90;7.68;;;;;;;5.22;63.68;99859.88;5114035;28;20028;-75
2021/03/17 08:04:14;;;;;;;13.63;8.00;;;;;;;5.42;63.25;99863.34;5115475;28;20238;-74
2021/03/17 08:06:40;;;;;;;13.38;8.13;;;;;;;5.25;63.66;99857.09;5114797;28;20027;-77
2021/03/17 08:09:06;;;;;;;14.43;7.50;;;;;;;5.06;63.62;99820.91;5115065;28;20367;-75
2021/03/17 08:11:33;;;;;;;13.65;8.07;;;;;;;5.44;63.90;99879.16;5114044;28;20039;-74
2021/03/17 08:14:00;;;;;;;14.82;8.32;;;;;;;5.62;63.17;99882.75;5114436;28;20043;-74
2021/03/17 08:16:30;;;;;;;14.13;8.57;;;;;;;5.32;63.52;99858.56;5095970;28;20114;-73
2021/03/17 08:18:56;;;;;;;13.40;7.85;;;;;;;5.52;62.76;99876.16;5114360;28;20081;-72
2021/03/17 08:21:48;;;;;;;16.55;8.85;;;;;;;5.70;62.64;99878.84;5098346;28;20036;-71
2021/03/17 08:24:40;;;;;;;13.32;8.15;;;;;;;5.83;62.10;99870.31;5114508;28;20032;-74
2021/03/17 08:27:05;;;;;;;15.10;8.15;;;;;;;5.99;62.57;99869.56;5087041;28;20039;-71
2021/03/17 08:29:46;;;;;;;14.50;8.82;;;;;;;6.27;61.71;99866.44;5114356;28;20096;-71
2021/03/17 08:32:14;;;;;;;13.05;7.88;;;;;;;6.28;60.40;99846.97;5113943;28;20063;-75
2021/03/17 08:34:40;;;;;;;15.98;9.02;;;;;;;6.31;60.20;99835.38;5114066;28;20491;-75
2021/03/17 08:37:08;;;;;;;13.13;8.57;;;;;;;6.65;59.80;99849.56;5095944;28;20043;-74
2021/03/17 08:39:33;;;;;;;15.85;8.07;;;;;;;6.71;59.28;99828.06;5113992;28;20431;-75
2021/03/17 08:42:05;;;;;;;15.40;8.15;;;;;;;6.87;58.11;99850.22;5113883;28;20027;-75
2021/03/17 08:44:30;;;;;;;18.10;9.02;;;;;;;7.05;58.08;99848.41;5114582;28;20041;-74
2021/03/17 08:47:11;;;;;;;13.18;8.10;;;;;;;7.30;57.42;99859.44;5113773;28;20028;-71
2021/03/17 08:49:37;;;;;;;14.77;8.57;;;;;;;7.07;58.20;99873.91;5113784;28;20051;-71
2021/03/17 08:52:13;;;;;;;12.90;8.10;;;;;;;6.80;58.15;99833.75;5113638;28;20126;-70
2021/03/17 08:54:45;;;;;;;13.00;7.57;;;;;;;6.88;58.39;99860.72;5113864;28;20031;-71
2021/03/17 08:57:12;;;;;;;15.05;8.15;;;;;;;6.97;58.07;99856.75;5113460;28;20051;-75
2021/03/17 08:59:47;;;;;;;12.52;7.68;;;;;;;6.93;57.56;99849.03;5113814;28;20110;-77
2021/03/17 09:02:36;;;;;;;12.73;7.88;;;;;;;6.93;57.84;99849.03;5113213;28;20058;-74
2021/03/17 09:05:16;;;;;;;12.73;8.07;;;;;;;7.14;58.02;99854.09;5104399;28;20043;-75
2021/03/17 09:08:00;;;;;;;14.48;8.70;;;;;;;7.24;57.77;99854.47;5113724;28;20416;-79
2021/03/17 09:10:47;;;;;;;13.57;8.00;;;;;;;7.34;56.60;99850.38;5113370;28;20055;-72
2021/03/17 09:13:16;;;;;;;14.98;8.77;;;;;;;6.99;56.87;99796.53;5113434;28;20062;-75
2021/03/17 09:15:47;;;;;;;13.23;7.60;;;;;;;6.60;57.69;99804.75;5111806;28;20505;-74
2021/03/17 09:18:14;;;;;;;15.13;9.27;;;;;;;6.94;57.87;99840.13;5113292;28;20405;-73
2021/03/17 09:20:49;;;;;;;14.23;8.30;;;;;;;6.81;56.67;99803.66;5113252;28;20032;-75
2021/03/17 09:23:22;;;;;;;15.73;9.00;;;;;;;6.86;56.67;99790.19;5113180;28;20481;-76
2021/03/17 09:25:51;;;;;;;13.32;8.93;;;;;;;7.35;56.08;99841.47;5113335;28;20035;-77
2021/03/17 09:28:24;;;;;;;16.13;9.10;;;;;;;7.28;56.27;99850.69;5112712;28;20035;-76
2021/03/17 09:30:53;;;;;;;14.70;8.30;;;;;;;7.25;55.52;99850.00;5113080;28;20023;-75
2021/03/17 09:33:29;;;;;;;14.30;8.70;;;;;;;7.26;55.59;99846.41;5113012;28;20023;-71
2021/03/17 09:35:57;;;;;;;13.95;8.85;;;;;;;7.37;55.27;99846.69;5113388;28;20054;-75
2021/03/17 09:38:26;;;;;;;16.05;9.88;;;;;;;7.41;55.89;99846.44;5113311;28;20335;-73
2021/03/17 09:41:00;;;;;;;16.30;8.73;;;;;;;7.61;55.53;99841.84;5112252;28;20036;-74
2021/03/17 09:43:33;;;;;;;15.20;9.23;;;;;;;7.63;54.50;99819.63;5112826;28;20024;-73
2021/03/17 09:46:00;;;;;;;16.52;9.00;;;;;;;7.72;54.42;99839.47;5111643;28;20051;-74
2021/03/17 09:48:26;;;;;;;17.45;8.95;;;;;;;7.84;54.35;99830.00;5113093;28;20120;-75
2021/03/17 09:50:58;;;;;;;15.60;8.90;;;;;;;8.01;53.84;99829.91;5112872;28;20031;-74
2021/03/17 09:53:24;;;;;;;13.82;8.68;;;;;;;7.79;54.41;99766.50;5112859;28;20027;-73
2021/03/17 09:55:50;;;;;;;15.20;9.30;;;;;;;7.92;54.38;99819.81;5111809;28;20050;-73
2021/03/17 09:58:15;;;;;;;16.40;9.13;;;;;;;7.91;54.00;99826.91;5112973;28;20066;-72
2021/03/17 10:00:41;;;;;;;15.55;9.00;;;;;;;8.13;53.78;99820.38;5112738;28;20039;-75
2021/03/17 10:03:12;;;;;;;14.35;8.50;;;;;;;8.01;52.93;99825.47;5111520;28;20118;-76
2021/03/17 10:05:39;;;;;;;16.40;8.80;;;;;;;7.90;52.66;99793.31;5113187;28;20384;-76
2021/03/17 10:08:05;;;;;;;14.05;8.40;;;;;;;8.21;52.55;99826.97;5094697;28;20063;-75
2021/03/17 10:10:31;;;;;;;11.48;7.60;;;;;;;7.96;49.61;99790.31;5111457;28;20028;-76
2021/03/17 10:12:57;;;;;;;11.80;7.18;;;;;;;8.04;49.04;99779.25;5112542;28;20028;-77
2021/03/17 10:15:23;;;;;;;13.15;7.57;;;;;;;7.96;48.91;99747.81;5111466;28;20399;-71
2021/03/17 10:17:52;;;;;;;13.07;7.60;;;;;;;8.19;48.70;99799.63;5116963;28;20043;-72
2021/03/17 10:20:22;;;;;;;12.90;7.68;;;;;;;8.40;49.33;99810.88;5116833;28;20027;-71
2021/03/17 10:22:50;;;;;;;13.23;7.65;;;;;;;8.32;49.30;99781.19;5115738;28;20054;-74
2021/03/17 10:25:19;;;;;;;13.00;7.60;;;;;;;8.38;48.92;99783.50;5098243;28;20497;-73
2021/03/17 10:27:51;;;;;;;11.73;7.43;;;;;;;8.46;47.13;99810.50;5116436;28;20053;-74
2021/03/17 10:30:37;;;;;;;13.48;7.10;;;;;;;8.16;47.43;99783.88;5098361;28;20020;-70
2021/03/17 10:33:09;;;;;;;13.48;7.53;;;;;;;8.30;47.40;99797.22;5101046;28;20038;-71
2021/03/17 10:35:34;;;;;;;13.25;7.60;;;;;;;8.47;47.81;99812.19;5116792;28;20405;-76
2021/03/17 10:38:00;;;;;;;13.95;8.38;;;;;;;8.61;48.12;99803.44;5098586;28;20130;-75
2021/03/17 10:40:27;;;;;;;14.70;8.52;;;;;;;8.94;47.60;99795.22;5093022;28;20036;-75
2021/03/17 10:42:58;;;;;;;14.43;8.57;;;;;;;9.29;47.77;99797.53;5116280;28;20031;-71
2021/03/17 10:45:41;;;;;;;13.57;7.30;;;;;;;9.31;45.41;99811.59;5115370;28;20039;-77
2021/03/17 10:48:25;;;;;;;12.68;7.13;;;;;;;9.13;44.71;99801.13;5116123;28;20036;-77
2021/03/17 10:50:54;;;;;;;11.32;6.57;;;;;;;9.03;44.56;99789.34;5114854;28;20035;-77
2021/03/17 10:53:21;;;;;;;12.95;7.80;;;;;;;8.96;45.17;99780.03;5116328;28;20055;-77
2021/03/17 10:55:48;;;;;;;13.05;7.60;;;;;;;9.08;45.88;99787.28;5116426;28;20032;-70
2021/03/17 10:58:26;;;;;;;13.85;8.23;;;;;;;8.92;47.03;99743.06;5114677;28;20043;-77
2021/03/17 11:01:01;;;;;;;13.93;8.05;;;;;;;9.52;47.53;99780.13;5118376;28;20493;-77
2021/03/17 11:03:28;;;;;;;13.35;8.65;;;;;;;9.19;46.70;99762.66;5115731;28;20524;-73
2021/03/17 11:06:29;;;;;;;9.70;5.78;;;;;;;9.32;46.93;99774.25;5114666;28;20070;-78
2021/03/17 11:09:00;;;;;;;9.15;4.78;;;;;;;9.56;46.12;99755.88;5058049;28;20127;-79
2021/03/17 11:11:26;;;;;;;13.85;8.13;;;;;;;9.58;45.29;99769.94;5104524;28;20047;-74
2021/03/17 11:13:52;;;;;;;12.02;7.63;;;;;;;9.53;44.59;99777.34;5114473;28;20432;-74
2021/03/17 11:16:20;;;;;;;12.30;7.65;;;;;;;9.40;44.34;99771.09;5097181;28;20054;-71
2021/03/17 11:18:47;;;;;;;13.13;7.35;;;;;;;9.28;45.39;99772.72;5115523;28;20039;-74
2021/03/17 11:21:23;;;;;;;11.60;6.93;;;;;;;9.31;45.40;99779.66;5115315;27;20026;-72
2021/03/17 11:23:50;;;;;;;10.68;5.97;;;;;;;9.36;45.95;99769.56;5115323;28;20093;-77
2021/03/17 11:26:26;;;;;;;10.20;5.03;;;;;;;9.25;45.62;99766.72;5114294;28;20493;-74
2021/03/17 11:28:53;;;;;;;9.65;5.93;;;;;;;8.79;45.63;99708.41;5114708;28;20186;-71
2021/03/17 11:31:33;;;;;;;11.40;7.10;;;;;;;8.83;45.66;99720.56;5114992;28;20486;-71
2021/03/17 11:33:59;;;;;;;12.48;6.35;;;;;;;8.98;45.69;99754.22;5113941;28;20020;-72
2021/03/17 11:36:26;;;;;;;12.30;6.60;;;;;;;9.01;45.73;99769.13;5114018;28;20031;-73
2021/03/17 11:38:53;;;;;;;11.70;6.90;;;;;;;8.82;45.93;99748.09;5115599;28;20439;-72
2021/03/17 11:41:19;;;;;;;11.43;6.07;;;;;;;8.97;45.84;99768.44;5113784;28;20035;-71
2021/03/17 11:43:45;;;;;;;11.98;6.80;;;;;;;9.10;45.64;99766.75;5096934;28;20039;-73
2021/03/17 11:46:12;;;;;;;11.57;6.35;;;;;;;9.16;45.20;99766.34;5114861;28;20038;-71